Time;durP1;ratioP1;P1;durP2;ratioP2;P2;SDS_P1;SDS_P2;PMS_P1;PMS_P2;Temp;Humidity;BMP_temperature;BMP_pressure;BME280_temperature;BME280_humidity;BME280_pressure;Samples;Min_cycle;Max_cycle;Signal;HPM_P1;HPM_P2
2023/09/04 00:01:44;;;;;;;1.30;1.20;;;;;;;22.04;49.07;101849.50;4533678;28;20028;-67
2023/09/04 00:03:55;;;;;;;0.85;0.82;;;;;;;22.02;48.78;101845.31;4550743;28;20071;-67
2023/09/04 00:06:05;;;;;;;1.20;1.02;;;;;;;22.02;49.08;101846.13;4550812;28;20543;-67
2023/09/04 00:08:16;;;;;;;1.20;1.10;;;;;;;22.02;49.02;101846.13;4551512;28;20139;-68
2023/09/04 00:10:26;;;;;;;1.27;1.17;;;;;;;22.03;48.59;101846.97;4551405;28;20036;-67
2023/09/04 00:12:37;;;;;;;1.27;1.10;;;;;;;21.96;48.63;101846.69;4552541;28;20481;-67
2023/09/04 00:14:47;;;;;;;1.30;1.20;;;;;;;22.01;48.19;101850.19;4551505;28;20060;-67
2023/09/04 00:16:58;;;;;;;1.35;1.10;;;;;;;22.02;48.17;101857.63;4551373;28;20760;-68
2023/09/04 00:19:08;;;;;;;1.75;1.20;;;;;;;22.00;48.24;101848.53;4550431;28;20032;-67
2023/09/04 00:21:19;;;;;;;1.20;1.10;;;;;;;22.01;48.61;101850.19;4552291;28;20031;-67
2023/09/04 00:23:29;;;;;;;1.38;0.90;;;;;;;22.00;48.62;101844.78;4551400;28;20110;-67
2023/09/04 00:25:40;;;;;;;1.20;1.10;;;;;;;22.01;48.25;101850.19;4550703;28;20037;-67
2023/09/04 00:27:50;;;;;;;1.20;1.00;;;;;;;22.02;48.48;101856.81;4551012;28;20059;-67
2023/09/04 00:30:01;;;;;;;1.08;1.00;;;;;;;21.99;48.26;101849.69;4521362;28;20527;-67
2023/09/04 00:32:11;;;;;;;1.10;1.00;;;;;;;22.00;47.83;101848.53;4551294;28;20050;-67
2023/09/04 00:34:22;;;;;;;0.93;0.80;;;;;;;22.00;48.18;101853.44;4549623;28;20024;-67
2023/09/04 00:36:32;;;;;;;1.15;0.90;;;;;;;22.01;47.76;101850.19;4538776;28;20124;-68
2023/09/04 00:38:42;;;;;;;1.10;1.00;;;;;;;22.00;47.80;101844.78;4534566;28;20048;-67
2023/09/04 00:40:53;;;;;;;1.05;0.98;;;;;;;22.00;47.77;101841.91;4550258;28;20108;-68
2023/09/04 00:43:04;;;;;;;1.63;1.02;;;;;;;21.98;47.30;101839.41;4534641;28;20148;-67
2023/09/04 00:45:14;;;;;;;1.65;1.55;;;;;;;21.97;47.95;101837.72;4552010;28;20074;-67
2023/09/04 00:47:26;;;;;;;1.13;1.02;;;;;;;21.98;47.79;101839.41;4550158;28;20029;-67
2023/09/04 00:49:37;;;;;;;1.25;1.10;;;;;;;21.99;48.04;101838.19;4540149;28;20119;-67
2023/09/04 00:51:47;;;;;;;1.20;1.10;;;;;;;21.97;48.09;101831.97;4550406;28;20111;-67
2023/09/04 00:53:59;;;;;;;1.55;1.10;;;;;;;21.90;48.38;101828.78;4549140;28;20033;-67
2023/09/04 00:56:13;;;;;;;1.30;1.20;;;;;;;21.96;48.15;101835.19;4542252;28;20033;-68
2023/09/04 00:58:23;;;;;;;1.17;1.08;;;;;;;21.97;48.35;101842.63;4532069;28;20042;-68
2023/09/04 01:00:34;;;;;;;1.63;1.20;;;;;;;21.93;48.61;101830.97;4550466;28;20498;-67
2023/09/04 01:02:44;;;;;;;1.10;1.00;;;;;;;21.97;48.81;101837.72;4542125;28;20401;-68
2023/09/04 01:04:55;;;;;;;1.02;0.93;;;;;;;21.97;48.46;101826.22;4534851;28;20041;-68
2023/09/04 01:07:05;;;;;;;0.98;0.98;;;;;;;21.95;48.53;101822.84;4542118;28;20032;-67
2023/09/04 01:09:17;;;;;;;1.10;1.00;;;;;;;21.96;48.28;101829.44;4550235;28;20033;-68
2023/09/04 01:11:40;;;;;;;1.10;1.00;;;;;;;21.97;47.79;101829.09;4549440;28;20047;-67
2023/09/04 01:13:53;;;;;;;1.17;1.08;;;;;;;21.96;47.87;101836.00;4524912;28;20025;-68
2023/09/04 01:16:06;;;;;;;1.40;1.30;;;;;;;21.96;47.85;101836.00;4532409;28;20040;-67
2023/09/04 01:18:17;;;;;;;0.90;0.90;;;;;;;21.91;47.98;101823.88;4533565;28;20040;-68
2023/09/04 01:20:29;;;;;;;1.20;1.10;;;;;;;21.95;47.72;101827.75;4533533;28;20033;-68
2023/09/04 01:22:40;;;;;;;1.10;1.00;;;;;;;21.94;47.21;101826.91;4541281;28;20052;-68
2023/09/04 01:24:50;;;;;;;1.30;1.00;;;;;;;21.93;47.13;101825.22;4550581;28;20394;-67
2023/09/04 01:27:13;;;;;;;1.20;1.05;;;;;;;21.95;47.46;101822.84;4535360;28;20437;-68
2023/09/04 01:29:35;;;;;;;0.80;0.80;;;;;;;21.95;47.22;101827.75;4549695;28;20930;-67
2023/09/04 01:31:54;;;;;;;1.20;1.10;;;;;;;21.93;47.57;101825.22;4549489;28;20040;-68
2023/09/04 01:34:18;;;;;;;1.02;0.90;;;;;;;21.93;47.10;101825.22;4530840;28;20867;-68
2023/09/04 01:36:32;;;;;;;1.30;1.20;;;;;;;21.92;47.33;101829.28;4549421;28;20044;-68
2023/09/04 01:38:45;;;;;;;0.80;0.80;;;;;;;21.92;47.30;101826.41;4550048;28;20127;-68
2023/09/04 01:40:56;;;;;;;1.25;1.05;;;;;;;21.92;47.06;101823.53;4542878;28;20040;-68
2023/09/04 01:43:06;;;;;;;0.90;0.90;;;;;;;21.90;47.05;101820.16;4549056;28;20045;-68
2023/09/04 01:45:17;;;;;;;1.10;1.00;;;;;;;21.93;47.10;101830.13;4548967;28;20039;-68
2023/09/04 01:47:27;;;;;;;1.00;0.90;;;;;;;21.90;47.27;101820.16;4534594;28;20079;-68
2023/09/04 01:49:37;;;;;;;1.25;1.00;;;;;;;21.88;46.82;101813.91;4533182;28;20037;-68
2023/09/04 01:51:48;;;;;;;1.00;1.00;;;;;;;21.85;47.06;101805.16;4550599;28;20033;-68
2023/09/04 01:53:58;;;;;;;0.93;0.85;;;;;;;21.92;46.93;101816.94;4535266;28;20175;-68
2023/09/04 01:56:09;;;;;;;1.20;0.90;;;;;;;21.90;46.62;101807.81;4534891;28;20052;-68
2023/09/04 01:58:19;;;;;;;1.23;0.77;;;;;;;21.86;46.77;101799.06;4533703;28;20064;-68
2023/09/04 02:00:30;;;;;;;1.33;1.00;;;;;;;21.89;46.44;101809.88;4534511;28;20025;-67
2023/09/04 02:02:40;;;;;;;1.00;0.90;;;;;;;21.88;46.32;101811.03;4549573;28;20340;-68
2023/09/04 02:04:50;;;;;;;1.08;0.98;;;;;;;21.86;46.67;101796.19;4549957;28;20114;-68
2023/09/04 02:07:01;;;;;;;0.90;0.90;;;;;;;21.84;46.62;101801.44;4540415;28;20029;-68
2023/09/04 02:09:11;;;;;;;1.00;0.90;;;;;;;21.88;46.43;101801.59;4540892;28;20036;-68
2023/09/04 02:11:22;;;;;;;0.85;0.85;;;;;;;21.86;45.96;101801.94;4549658;28;21058;-67
2023/09/04 02:13:32;;;;;;;1.00;0.90;;;;;;;21.82;46.22;101789.44;4533123;28;20021;-68
2023/09/04 02:15:43;;;;;;;1.33;1.08;;;;;;;21.89;46.07;101795.50;4535346;28;20088;-69
2023/09/04 02:17:53;;;;;;;1.10;1.00;;;;;;;21.83;46.04;101788.25;4534648;28;20080;-68
2023/09/04 02:20:05;;;;;;;1.05;0.90;;;;;;;21.89;46.18;101788.88;4531183;28;20029;-68
2023/09/04 02:22:15;;;;;;;2.00;0.90;;;;;;;21.84;46.39;101787.06;4549130;28;20136;-68
2023/09/04 02:24:26;;;;;;;0.80;0.80;;;;;;;21.86;46.18;101796.19;4534643;28;20039;-68
2023/09/04 02:26:37;;;;;;;0.80;0.80;;;;;;;21.87;46.00;101792.13;4534982;28;20033;-68
2023/09/04 02:28:47;;;;;;;1.33;1.00;;;;;;;21.81;46.12;101776.28;4533515;28;20049;-68
2023/09/04 02:30:58;;;;;;;1.13;0.90;;;;;;;21.87;46.14;101791.25;4550078;28;20454;-68
2023/09/04 02:33:08;;;;;;;0.80;0.80;;;;;;;21.86;45.75;101786.72;4549545;28;20052;-68
2023/09/04 02:35:18;;;;;;;0.98;0.85;;;;;;;21.86;45.80;101789.59;4549733;28;20033;-68
2023/09/04 02:37:29;;;;;;;1.00;0.90;;;;;;;21.82;45.22;101774.22;4518503;28;20041;-68
2023/09/04 02:39:39;;;;;;;0.80;0.80;;;;;;;21.83;45.20;101781.66;4549090;28;20037;-68
2023/09/04 02:41:50;;;;;;;1.10;1.00;;;;;;;21.85;45.13;101787.91;4549373;28;20029;-68
2023/09/04 02:44:01;;;;;;;1.08;0.98;;;;;;;21.79;45.09;101772.88;4549551;28;20040;-68
2023/09/04 02:46:11;;;;;;;1.08;0.90;;;;;;;21.85;44.77;101776.41;4534257;28;20029;-68
2023/09/04 02:48:22;;;;;;;0.80;0.80;;;;;;;21.80;44.50;101774.56;4542569;28;20517;-68
2023/09/04 02:50:33;;;;;;;0.80;0.80;;;;;;;21.78;44.60;101771.22;4549746;28;20107;-68
2023/09/04 02:52:44;;;;;;;0.90;0.90;;;;;;;21.83;44.38;101779.66;4534937;28;20031;-68
2023/09/04 02:54:54;;;;;;;1.10;1.00;;;;;;;21.80;44.80;101773.75;4533036;28;20040;-68
2023/09/04 02:57:05;;;;;;;0.75;0.75;;;;;;;21.82;44.35;101780.81;4541704;28;20033;-68
2023/09/04 02:59:15;;;;;;;0.90;0.90;;;;;;;21.77;44.79;101768.69;4549109;28;20033;-68
2023/09/04 03:01:26;;;;;;;1.23;0.90;;;;;;;21.80;44.47;101777.44;4539861;28;20021;-68
2023/09/04 03:03:36;;;;;;;0.90;0.90;;;;;;;21.80;44.73;101768.00;4553469;28;20044;-68
2023/09/04 03:05:47;;;;;;;1.15;1.05;;;;;;;21.82;44.21;101777.09;4543207;28;20060;-68
2023/09/04 03:07:57;;;;;;;1.10;1.00;;;;;;;21.77;44.36;101768.69;4550366;28;20040;-68
2023/09/04 03:10:08;;;;;;;1.80;0.90;;;;;;;21.79;44.68;101772.88;4530819;28;20037;-68
2023/09/04 03:12:18;;;;;;;1.58;0.82;;;;;;;21.80;44.46;101786.06;4551316;28;20036;-68
2023/09/04 03:14:29;;;;;;;1.42;0.90;;;;;;;21.81;44.38;101787.75;4534891;28;20033;-68
2023/09/04 03:16:39;;;;;;;1.60;1.10;;;;;;;21.78;44.02;101776.97;4551138;28;20513;-68
2023/09/04 03:18:50;;;;;;;0.95;0.88;;;;;;;21.81;44.11;101782.00;4552389;28;20033;-68
2023/09/04 03:21:04;;;;;;;1.00;0.90;;;;;;;21.80;44.08;101786.06;4550455;28;20029;-68
2023/09/04 03:23:15;;;;;;;0.73;0.73;;;;;;;21.79;44.00;101784.38;4533474;28;20037;-68
2023/09/04 03:25:26;;;;;;;0.88;0.80;;;;;;;21.78;43.98;101776.13;4542538;28;20037;-67
2023/09/04 03:27:36;;;;;;;0.80;0.80;;;;;;;21.75;44.20;101777.66;4522849;28;20056;-67
2023/09/04 03:29:47;;;;;;;0.70;0.70;;;;;;;21.77;43.73;101789.63;4542113;28;20021;-67
2023/09/04 03:31:59;;;;;;;0.70;0.70;;;;;;;21.78;43.41;101785.59;4536321;28;20038;-67
2023/09/04 03:34:10;;;;;;;1.10;1.00;;;;;;;21.76;43.86;101782.22;4542511;28;20045;-67
2023/09/04 03:36:21;;;;;;;0.73;0.73;;;;;;;21.79;43.63;101772.03;4542640;28;20045;-67
2023/09/04 03:38:31;;;;;;;0.80;0.80;;;;;;;21.76;43.57;101778.47;4536773;28;20119;-67
2023/09/04 03:40:42;;;;;;;1.10;0.90;;;;;;;21.79;43.73;101777.78;4551848;28;20017;-67
2023/09/04 03:42:53;;;;;;;0.80;0.80;;;;;;;21.74;43.32;101764.44;4550704;28;20497;-67
2023/09/04 03:45:04;;;;;;;0.95;0.80;;;;;;;21.76;43.41;101767.00;4535911;28;20033;-67
2023/09/04 03:47:15;;;;;;;0.98;0.98;;;;;;;21.72;43.42;101760.22;4550914;28;20033;-67
2023/09/04 03:49:26;;;;;;;0.93;0.80;;;;;;;21.73;43.21;101771.38;4550656;28;20033;-67
2023/09/04 03:51:36;;;;;;;1.02;0.90;;;;;;;21.77;43.60;101768.69;4542043;28;20169;-67
2023/09/04 03:53:46;;;;;;;0.95;0.90;;;;;;;21.76;44.05;101764.97;4550983;28;20029;-68
2023/09/04 03:56:06;;;;;;;0.80;0.80;;;;;;;21.73;44.07;101762.75;4536772;28;20106;-67
2023/09/04 03:58:17;;;;;;;0.75;0.75;;;;;;;21.74;44.16;101758.69;4532653;28;20045;-67
2023/09/04 04:00:29;;;;;;;0.98;0.88;;;;;;;21.69;43.66;101761.75;4536456;28;20088;-67
2023/09/04 04:02:41;;;;;;;0.80;0.80;;;;;;;21.74;43.83;101764.44;4551267;28;20037;-67
2023/09/04 04:04:52;;;;;;;1.10;1.00;;;;;;;21.75;43.64;101759.53;4542974;28;20060;-68
2023/09/04 04:07:03;;;;;;;0.85;0.82;;;;;;;21.74;43.48;101757.84;4542307;28;20030;-68
2023/09/04 04:09:15;;;;;;;0.90;0.90;;;;;;;21.72;43.25;101758.19;4551435;28;20033;-68
2023/09/04 04:11:27;;;;;;;0.70;0.70;;;;;;;21.74;43.28;101752.94;4533749;28;20037;-68
2023/09/04 04:13:37;;;;;;;0.85;0.80;;;;;;;21.69;43.55;101747.38;4542302;28;20037;-68
2023/09/04 04:15:47;;;;;;;1.13;0.85;;;;;;;21.74;43.34;101752.13;4550907;28;20494;-68
2023/09/04 04:17:58;;;;;;;1.25;0.80;;;;;;;21.72;42.92;101749.56;4535819;28;20061;-68
2023/09/04 04:20:12;;;;;;;0.80;0.80;;;;;;;21.68;43.13;101745.72;4550713;28;20110;-68
2023/09/04 04:22:23;;;;;;;1.02;0.90;;;;;;;21.70;42.92;101751.97;4532833;28;20862;-67
2023/09/04 04:24:35;;;;;;;0.88;0.80;;;;;;;21.73;42.65;101756.16;4551057;28;20919;-68
2023/09/04 04:26:46;;;;;;;1.00;0.90;;;;;;;21.69;42.79;101749.44;4550545;28;20543;-68
2023/09/04 04:28:56;;;;;;;1.00;0.90;;;;;;;21.72;43.30;101758.19;4550299;28;20028;-70
2023/09/04 04:31:06;;;;;;;0.75;0.75;;;;;;;21.68;43.30;101748.59;4550899;28;20024;-67
2023/09/04 04:33:17;;;;;;;1.08;1.00;;;;;;;21.69;43.09;101737.94;4549943;28;20035;-68
2023/09/04 04:35:28;;;;;;;1.05;0.93;;;;;;;21.72;43.17;101745.88;4536021;28;20033;-67
2023/09/04 04:37:38;;;;;;;0.88;0.88;;;;;;;21.69;43.47;101747.38;4550769;28;20037;-68
2023/09/04 04:39:51;;;;;;;1.25;1.10;;;;;;;21.67;43.15;101737.44;4531104;28;20029;-67
2023/09/04 04:42:02;;;;;;;1.30;1.20;;;;;;;21.63;43.37;101736.44;4530769;28;20192;-68
2023/09/04 04:44:13;;;;;;;1.30;1.20;;;;;;;21.70;43.20;101751.97;4549224;28;20164;-68
2023/09/04 04:46:23;;;;;;;1.10;1.00;;;;;;;21.69;43.48;101741.63;4550223;28;20029;-68
2023/09/04 04:48:34;;;;;;;1.33;1.10;;;;;;;21.69;43.41;101750.25;4530574;28;20041;-68
2023/09/04 04:50:44;;;;;;;1.30;1.10;;;;;;;21.69;43.74;101750.25;4550369;28;20031;-68
2023/09/04 04:52:55;;;;;;;1.27;1.08;;;;;;;21.64;43.35;101744.72;4534777;28;20040;-68
2023/09/04 04:55:07;;;;;;;1.10;1.00;;;;;;;21.67;43.83;101751.81;4537259;28;20029;-68
2023/09/04 04:57:17;;;;;;;1.02;0.98;;;;;;;21.68;43.54;101757.19;4549619;28;20037;-68
2023/09/04 04:59:28;;;;;;;1.30;1.20;;;;;;;21.69;43.83;101763.81;4549285;28;20584;-68
2023/09/04 05:01:38;;;;;;;1.55;1.00;;;;;;;21.67;43.33;101764.16;4541367;28;20068;-68
2023/09/04 05:03:49;;;;;;;1.25;1.00;;;;;;;21.67;43.82;101761.28;4539775;28;20035;-68
2023/09/04 05:06:00;;;;;;;1.50;1.10;;;;;;;21.68;43.46;101771.56;4531963;28;20164;-68
2023/09/04 05:08:11;;;;;;;1.35;1.20;;;;;;;21.68;43.72;101765.81;4541362;28;20857;-68
2023/09/04 05:10:22;;;;;;;1.40;1.10;;;;;;;21.68;43.93;101770.72;4535527;28;20087;-68
2023/09/04 05:12:33;;;;;;;1.13;1.02;;;;;;;21.67;44.00;101769.03;4532960;28;20121;-68
2023/09/04 05:14:44;;;;;;;1.10;1.00;;;;;;;21.65;43.72;101769.41;4536301;28;20032;-68
2023/09/04 05:16:54;;;;;;;1.20;1.10;;;;;;;21.68;43.88;101767.84;4534857;28;20099;-68
2023/09/04 05:19:04;;;;;;;1.00;0.90;;;;;;;21.67;44.50;101766.16;4534438;28;20374;-68
2023/09/04 05:21:15;;;;;;;1.00;0.90;;;;;;;21.67;44.89;101758.41;4534833;28;20513;-67
2023/09/04 05:23:25;;;;;;;1.10;1.00;;;;;;;21.64;44.76;101756.22;4549120;28;20210;-68
2023/09/04 05:25:36;;;;;;;1.45;1.17;;;;;;;21.55;44.74;101738.16;4532179;28;20030;-68
2023/09/04 05:27:46;;;;;;;1.27;1.10;;;;;;;21.67;44.98;101752.66;4535396;28;20577;-67
2023/09/04 05:29:57;;;;;;;1.08;0.98;;;;;;;21.62;45.02;101743.38;4549189;28;20036;-68
2023/09/04 05:32:08;;;;;;;1.10;1.00;;;;;;;21.68;45.17;101762.09;4550371;28;20040;-68
2023/09/04 05:34:19;;;;;;;1.80;1.15;;;;;;;21.69;45.05;101756.00;4548579;28;20027;-68
2023/09/04 05:36:29;;;;;;;1.15;1.00;;;;;;;21.68;45.08;101760.06;4549325;28;20044;-68
2023/09/04 05:38:40;;;;;;;1.20;1.10;;;;;;;21.67;45.48;101758.41;4551328;28;20047;-68
2023/09/04 05:40:54;;;;;;;1.48;1.17;;;;;;;21.65;45.54;101757.91;4549046;28;20032;-68
2023/09/04 05:43:05;;;;;;;1.27;1.05;;;;;;;21.67;45.63;101758.41;4549726;28;20041;-67
2023/09/04 05:45:16;;;;;;;0.98;0.80;;;;;;;21.68;45.86;101762.09;4532476;28;20057;-68
2023/09/04 05:47:26;;;;;;;1.10;1.00;;;;;;;21.66;46.01;101768.19;4549120;28;20094;-67
2023/09/04 05:49:37;;;;;;;1.05;0.90;;;;;;;21.67;46.66;101769.91;4547643;28;20416;-68
2023/09/04 05:51:47;;;;;;;1.08;0.90;;;;;;;21.68;46.74;101764.97;4550236;28;20033;-68
2023/09/04 05:53:58;;;;;;;1.40;1.00;;;;;;;21.67;46.48;101769.03;4536590;28;20163;-68
2023/09/04 05:56:10;;;;;;;1.25;1.10;;;;;;;21.69;46.37;101767.50;4549537;28;20473;-69
2023/09/04 05:58:21;;;;;;;0.80;0.80;;;;;;;21.67;46.76;101763.31;4548404;28;20044;-68
2023/09/04 06:00:31;;;;;;;1.10;1.00;;;;;;;21.64;46.51;101759.09;4549425;28;20804;-68
2023/09/04 06:02:42;;;;;;;1.02;0.80;;;;;;;21.66;49.37;101767.38;4549262;28;20041;-68
2023/09/04 06:04:53;;;;;;;1.33;0.80;;;;;;;21.67;51.38;101775.66;4549872;28;20032;-67
2023/09/04 06:07:05;;;;;;;1.70;0.70;;;;;;;21.63;51.92;101768.88;4548859;28;20509;-66
2023/09/04 06:09:15;;;;;;;1.15;0.73;;;;;;;21.65;53.33;101757.03;4547184;28;20094;-67
2023/09/04 06:11:26;;;;;;;0.70;0.70;;;;;;;21.66;53.68;101761.63;4548781;28;20647;-67
2023/09/04 06:13:36;;;;;;;0.70;0.70;;;;;;;21.55;53.26;101749.66;4548458;28;20037;-67
2023/09/04 06:15:50;;;;;;;0.82;0.80;;;;;;;21.65;54.30;101763.66;4549470;28;20072;-66
2023/09/04 06:18:00;;;;;;;0.80;0.80;;;;;;;21.67;54.37;101772.78;4548613;28;20021;-67
2023/09/04 06:20:11;;;;;;;0.88;0.80;;;;;;;21.67;54.38;101764.16;4548838;28;20037;-67
2023/09/04 06:22:22;;;;;;;0.70;0.70;;;;;;;21.67;54.17;101757.56;4549311;28;20033;-67
2023/09/04 06:24:32;;;;;;;0.90;0.70;;;;;;;21.69;53.65;101761.75;4540685;28;20494;-67
2023/09/04 06:26:42;;;;;;;1.00;0.90;;;;;;;21.68;53.01;101757.19;4533914;28;20083;-67
2023/09/04 06:28:53;;;;;;;1.13;0.70;;;;;;;21.68;54.14;101760.06;4548406;28;20040;-66
2023/09/04 06:31:03;;;;;;;0.60;0.60;;;;;;;21.68;54.22;101768.69;4547850;28;20186;-67
2023/09/04 06:33:14;;;;;;;0.70;0.70;;;;;;;21.69;54.54;101766.69;4549137;28;20037;-67
2023/09/04 06:35:25;;;;;;;0.60;0.60;;;;;;;21.68;54.40;101760.06;4542433;28;20038;-66
2023/09/04 06:37:35;;;;;;;0.70;0.70;;;;;;;21.69;54.76;101769.53;4551387;28;20037;-67
2023/09/04 06:39:45;;;;;;;0.88;0.75;;;;;;;21.66;54.09;101756.69;4552118;28;20037;-67
2023/09/04 06:41:56;;;;;;;0.63;0.63;;;;;;;21.69;54.01;101761.75;4552134;28;20102;-67
2023/09/04 06:44:09;;;;;;;0.93;0.75;;;;;;;21.68;54.39;101759.22;4543217;28;20145;-67
2023/09/04 06:46:19;;;;;;;0.80;0.80;;;;;;;21.58;54.46;101745.28;4551968;28;20033;-66
2023/09/04 06:48:30;;;;;;;0.70;0.70;;;;;;;21.65;54.08;101754.16;4552165;28;20029;-67
2023/09/04 06:50:40;;;;;;;0.95;0.85;;;;;;;21.65;54.17;101760.78;4534164;28;20030;-67
2023/09/04 06:52:51;;;;;;;0.70;0.70;;;;;;;21.68;53.88;101762.94;4551386;28;20470;-67
2023/09/04 06:55:03;;;;;;;0.80;0.77;;;;;;;21.68;53.88;101764.97;4550753;28;20758;-67
2023/09/04 06:57:13;;;;;;;0.82;0.80;;;;;;;21.68;53.90;101762.94;4552319;28;20832;-66
2023/09/04 06:59:24;;;;;;;0.80;0.80;;;;;;;21.63;53.53;101756.53;4551486;28;20055;-66
2023/09/04 07:01:35;;;;;;;0.80;0.70;;;;;;;21.67;54.08;101767.03;4551937;28;20028;-67
2023/09/04 07:03:45;;;;;;;0.90;0.90;;;;;;;21.57;53.58;101750.16;4519596;28;20505;-66
2023/09/04 07:05:56;;;;;;;0.68;0.68;;;;;;;21.65;53.77;101768.53;4552531;28;20455;-67
2023/09/04 07:08:06;;;;;;;0.80;0.80;;;;;;;21.66;53.53;101764.50;4551044;28;20036;-67
2023/09/04 07:10:16;;;;;;;1.00;0.85;;;;;;;21.65;53.85;101763.66;4552152;28;20041;-66
2023/09/04 07:12:27;;;;;;;0.98;0.82;;;;;;;21.66;54.30;101762.44;4551065;28;20035;-67
2023/09/04 07:14:38;;;;;;;0.80;0.80;;;;;;;21.65;53.76;101771.41;4532981;28;20147;-66
2023/09/04 07:16:48;;;;;;;0.70;0.70;;;;;;;21.66;54.00;101767.38;4551668;28;20075;-67
2023/09/04 07:18:59;;;;;;;0.77;0.77;;;;;;;21.62;54.40;101761.47;4552411;28;20042;-67
2023/09/04 07:21:09;;;;;;;0.90;0.80;;;;;;;21.66;54.28;101767.38;4551242;28;20113;-67
2023/09/04 07:23:20;;;;;;;1.00;0.80;;;;;;;21.65;54.25;101766.53;4551839;28;20555;-67
2023/09/04 07:25:31;;;;;;;0.70;0.70;;;;;;;21.65;53.94;101771.41;4549689;28;20037;-67
2023/09/04 07:27:41;;;;;;;1.00;0.70;;;;;;;21.65;54.84;101771.41;4550865;28;20397;-67
2023/09/04 07:29:52;;;;;;;0.60;0.60;;;;;;;21.64;54.32;101770.59;4551636;28;20032;-67
2023/09/04 07:32:02;;;;;;;0.70;0.70;;;;;;;21.64;54.91;101766.88;4551161;28;20045;-67
2023/09/04 07:34:13;;;;;;;0.88;0.70;;;;;;;21.65;54.82;101772.25;4536266;28;20029;-67
2023/09/04 07:36:24;;;;;;;0.60;0.60;;;;;;;21.66;55.13;101773.13;4550374;28;20131;-65
2023/09/04 07:38:34;;;;;;;0.75;0.70;;;;;;;21.61;55.00;101770.44;4550579;28;20509;-66
2023/09/04 07:40:44;;;;;;;0.80;0.80;;;;;;;21.58;54.95;101766.22;4542504;28;20025;-66
2023/09/04 07:42:55;;;;;;;0.65;0.65;;;;;;;21.64;55.14;101786.97;4539387;28;20045;-66
2023/09/04 07:45:06;;;;;;;0.90;0.60;;;;;;;21.63;55.75;101777.50;4535829;28;20869;-66
2023/09/04 07:47:17;;;;;;;0.80;0.77;;;;;;;21.67;55.86;101784.25;4550567;28;20033;-66
2023/09/04 07:49:27;;;;;;;0.73;0.73;;;;;;;21.66;55.46;101791.19;4550962;28;20012;-66
2023/09/04 07:51:37;;;;;;;0.85;0.75;;;;;;;21.67;55.00;101787.13;4550065;28;20037;-66
2023/09/04 07:53:48;;;;;;;0.70;0.68;;;;;;;21.65;55.97;101783.75;4549969;28;20051;-66
2023/09/04 07:55:58;;;;;;;2.00;0.60;;;;;;;21.67;55.98;101778.53;4533212;28;20044;-66
2023/09/04 07:58:10;;;;;;;0.70;0.70;;;;;;;21.68;56.21;101788.81;4550023;28;20970;-66
2023/09/04 08:00:21;;;;;;;0.95;0.80;;;;;;;21.66;55.19;101781.75;4550367;28;20044;-67
2023/09/04 08:02:32;;;;;;;0.90;0.70;;;;;;;21.66;55.00;101785.44;4534225;28;21399;-67
2023/09/04 08:04:42;;;;;;;0.80;0.80;;;;;;;21.63;54.44;101791.88;4552028;28;20052;-67
2023/09/04 08:06:55;;;;;;;0.90;0.70;;;;;;;21.66;55.70;101791.19;4552306;28;20079;-67
2023/09/04 08:09:06;;;;;;;0.80;0.80;;;;;;;21.67;55.68;101792.03;4532937;28;20033;-67
2023/09/04 08:11:16;;;;;;;0.85;0.60;;;;;;;21.66;55.78;101790.34;4534593;28;20029;-67
2023/09/04 08:13:26;;;;;;;0.85;0.70;;;;;;;21.66;56.20;101787.47;4550195;28;21186;-67
2023/09/04 08:15:37;;;;;;;0.60;0.60;;;;;;;21.67;56.07;101792.03;4551230;28;20554;-67
2023/09/04 08:17:48;;;;;;;1.00;0.90;;;;;;;21.65;55.53;101789.50;4550388;28;20171;-67
2023/09/04 08:19:58;;;;;;;1.52;0.77;;;;;;;21.62;54.67;101775.84;4540627;28;20032;-67
2023/09/04 08:22:09;;;;;;;1.00;0.80;;;;;;;21.67;55.06;101787.13;4549705;28;20048;-67
2023/09/04 08:24:19;;;;;;;0.80;0.70;;;;;;;21.64;55.48;101773.47;4535304;28;20076;-67
2023/09/04 08:26:30;;;;;;;0.70;0.70;;;;;;;21.64;54.70;101782.09;4550114;28;20081;-67
2023/09/04 08:28:41;;;;;;;1.05;0.80;;;;;;;21.68;54.96;101782.22;4541683;28;20104;-67
2023/09/04 08:30:52;;;;;;;1.00;0.90;;;;;;;21.64;55.08;101773.47;4540273;28;20041;-66
2023/09/04 08:33:03;;;;;;;1.73;0.90;;;;;;;21.67;55.05;101781.41;4550990;28;20017;-67
2023/09/04 08:35:13;;;;;;;1.00;0.75;;;;;;;21.66;55.63;101771.06;4541394;28;20029;-67
2023/09/04 08:37:24;;;;;;;1.00;0.90;;;;;;;21.66;55.22;101767.38;4549361;28;20057;-66
2023/09/04 08:39:34;;;;;;;1.10;0.95;;;;;;;21.68;55.15;101780.19;4549103;28;20120;-67
2023/09/04 08:41:45;;;;;;;1.15;0.90;;;;;;;21.67;55.68;101761.28;4550465;28;20021;-67
2023/09/04 08:43:57;;;;;;;1.23;0.95;;;;;;;21.69;56.71;101760.94;4541861;28;20087;-67
2023/09/04 08:46:08;;;;;;;1.45;0.93;;;;;;;21.67;55.09;101751.81;4549241;28;20033;-67
2023/09/04 08:48:21;;;;;;;0.93;0.90;;;;;;;21.69;55.68;101755.19;4550497;28;20632;-67
2023/09/04 08:50:31;;;;;;;1.02;0.95;;;;;;;21.67;55.76;101749.78;4550927;28;20058;-66
2023/09/04 08:52:42;;;;;;;1.05;0.90;;;;;;;21.65;56.42;101749.28;4550202;28;20047;-66
2023/09/04 08:54:53;;;;;;;0.80;0.80;;;;;;;21.68;56.18;101751.47;4531215;28;20120;-67
2023/09/04 08:57:04;;;;;;;0.82;0.82;;;;;;;21.68;55.63;101745.72;4534301;28;20159;-66
2023/09/04 08:59:14;;;;;;;0.80;0.80;;;;;;;21.70;55.73;101742.47;4548738;28;20116;-67
2023/09/04 09:01:26;;;;;;;1.10;1.00;;;;;;;21.71;55.47;101739.25;4547676;28;20473;-67
2023/09/04 09:03:37;;;;;;;1.35;0.90;;;;;;;21.71;56.43;101735.53;4550920;28;20118;-68
2023/09/04 09:05:48;;;;;;;0.77;0.70;;;;;;;21.70;56.22;101737.59;4533129;28;21150;-67
2023/09/04 09:07:59;;;;;;;1.05;0.95;;;;;;;21.70;55.91;101736.75;4550136;28;20122;-67
2023/09/04 09:10:15;;;;;;;1.17;1.00;;;;;;;21.67;57.06;101729.66;4550494;28;20029;-67
2023/09/04 09:12:25;;;;;;;1.52;0.93;;;;;;;21.70;57.38;101728.97;4548781;28;20519;-67
2023/09/04 09:14:35;;;;;;;0.70;0.70;;;;;;;21.67;56.39;101723.06;4549385;28;20153;-66
2023/09/04 09:16:46;;;;;;;0.80;0.80;;;;;;;21.71;55.83;101736.38;4549642;28;20040;-66
2023/09/04 09:18:56;;;;;;;1.02;0.93;;;;;;;21.68;56.76;101727.63;4550660;28;20082;-67
2023/09/04 09:21:39;;;;;;;0.85;0.85;;;;;;;21.72;56.96;101735.19;4549446;28;20033;-67
2023/09/04 09:24:16;;;;;;;0.90;0.90;;;;;;;21.72;56.84;101732.31;4510285;28;20057;-67
2023/09/04 09:26:26;;;;;;;1.00;0.95;;;;;;;21.72;56.07;101735.19;4550409;28;20059;-67
2023/09/04 09:28:37;;;;;;;1.10;0.90;;;;;;;21.70;56.07;101731.00;4541572;28;20048;-66
2023/09/04 09:30:50;;;;;;;0.80;0.80;;;;;;;21.73;56.85;101733.16;4551454;28;20028;-67
2023/09/04 09:33:04;;;;;;;0.80;0.80;;;;;;;21.71;56.56;101732.66;4550437;28;20044;-67
2023/09/04 09:35:15;;;;;;;0.90;0.90;;;;;;;21.71;55.98;101722.03;4549153;28;20594;-67
2023/09/04 09:37:30;;;;;;;1.00;0.90;;;;;;;21.71;56.06;101727.78;4530221;28;20034;-66
2023/09/04 09:39:41;;;;;;;1.00;0.90;;;;;;;21.72;54.71;101732.31;4549311;28;20044;-67
2023/09/04 09:41:52;;;;;;;1.08;0.90;;;;;;;21.70;53.76;101726.09;4550085;28;20119;-67
2023/09/04 09:44:04;;;;;;;0.82;0.80;;;;;;;21.68;54.44;101719.00;4549176;28;20106;-67
2023/09/04 09:46:17;;;;;;;0.90;0.90;;;;;;;21.72;53.33;101723.69;4549983;28;20024;-67
2023/09/04 09:48:30;;;;;;;1.55;0.90;;;;;;;21.70;53.12;101719.50;4540918;28;20039;-67
2023/09/04 09:50:40;;;;;;;1.02;1.00;;;;;;;21.71;54.02;101719.16;4541799;28;20037;-67
2023/09/04 09:52:58;;;;;;;1.02;0.93;;;;;;;21.71;54.33;101710.53;4548668;28;20037;-67
2023/09/04 09:55:23;;;;;;;1.00;0.82;;;;;;;21.71;54.15;101719.16;4549270;28;20148;-67
2023/09/04 09:57:35;;;;;;;1.38;1.00;;;;;;;21.65;53.83;101714.81;4550753;28;20103;-67
2023/09/04 09:59:48;;;;;;;0.82;0.82;;;;;;;21.73;55.72;101718.81;4539923;28;20593;-67
2023/09/04 10:02:01;;;;;;;1.02;0.90;;;;;;;21.67;54.86;101712.44;4541475;28;20021;-67
2023/09/04 10:04:13;;;;;;;1.02;0.93;;;;;;;21.68;55.29;101714.09;4523769;28;20052;-67
2023/09/04 10:06:29;;;;;;;1.30;1.20;;;;;;;21.70;54.93;101714.59;4531708;28;20998;-67
2023/09/04 10:08:42;;;;;;;0.90;0.90;;;;;;;21.71;54.88;101716.28;4541740;28;20041;-67
2023/09/04 10:10:54;;;;;;;1.02;0.90;;;;;;;21.72;54.60;101702.75;4522900;28;20049;-67